Aviation Digital Data Service (ADDS)

Output produced by METARs form (0325 UTC 21 September 2017)
found at http://www.aviationweather.gov/adds/metars/
 
TAF FXMM 200300Z 2006/2106 00000KT CAVOK 
     BECMG 2009/2012 35004KT 
     BECMG 2012/2016 32007KT 9999 FEW035 
     FM202200 00000KT CAVOK